createdAt,value
2022-10-05T00:00:22.232Z,0.80
2022-10-05T00:06:13.152Z,0.60
2022-10-05T00:09:27.719Z,0.60
2022-10-05T00:12:23.613Z,0.50
2022-10-05T00:15:20.887Z,0.50
2022-10-05T00:24:25.841Z,0.45
2022-10-05T00:27:26.164Z,0.40
2022-10-05T00:30:23.061Z,0.60
2022-10-05T00:33:17.503Z,0.30
2022-10-05T00:36:12.070Z,0.32
2022-10-05T00:39:06.619Z,0.50
2022-10-05T00:42:16.594Z,0.40
2022-10-05T00:45:35.141Z,0.40
2022-10-05T00:48:57.953Z,0.40
2022-10-05T00:52:05.932Z,0.50
2022-10-05T00:55:28.738Z,0.43
2022-10-05T00:58:35.586Z,0.40
2022-10-05T01:01:43.750Z,0.47
2022-10-05T01:04:52.759Z,0.45
2022-10-05T01:08:02.182Z,0.40
2022-10-05T01:11:02.434Z,0.40
2022-10-05T01:14:20.344Z,0.30
2022-10-05T01:17:46.430Z,0.32
2022-10-05T01:20:56.207Z,0.30
2022-10-05T01:24:18.724Z,0.40
2022-10-05T01:27:32.717Z,0.60
2022-10-05T01:30:27.318Z,0.57
2022-10-05T01:33:33.025Z,0.60
2022-10-05T01:36:56.501Z,0.60
2022-10-05T01:40:03.725Z,0.60
2022-10-05T01:43:19.434Z,0.73
2022-10-05T01:46:35.818Z,0.70
2022-10-05T01:50:08.525Z,0.82
2022-10-05T01:53:36.606Z,1.00
2022-10-05T01:56:54.981Z,0.90
2022-10-05T01:59:58.219Z,0.90
2022-10-05T02:02:58.477Z,0.50
2022-10-05T02:06:02.553Z,0.60
2022-10-05T02:09:13.134Z,0.60
2022-10-05T02:12:13.606Z,1.00
2022-10-05T02:15:31.442Z,0.90
2022-10-05T02:18:38.358Z,0.80
2022-10-05T02:21:35.412Z,0.70
2022-10-05T02:24:36.846Z,0.70
2022-10-05T02:27:34.891Z,0.70
2022-10-05T02:30:31.398Z,0.70
2022-10-05T02:33:34.837Z,0.57
2022-10-05T02:36:36.200Z,0.55
2022-10-05T02:39:33.442Z,0.70
2022-10-05T02:46:07.872Z,0.40
2022-10-05T02:49:40.771Z,0.80
2022-10-05T02:53:16.662Z,0.70
2022-10-05T02:56:28.625Z,0.80
2022-10-05T03:00:10.147Z,0.75
2022-10-05T03:03:11.150Z,0.90
2022-10-05T03:06:13.711Z,0.80
2022-10-05T03:09:11.154Z,0.70
2022-10-05T03:12:21.554Z,0.70
2022-10-05T03:15:33.067Z,0.80
2022-10-05T03:18:42.825Z,1.13
2022-10-05T03:21:58.611Z,0.80
2022-10-05T03:25:14.483Z,0.70
2022-10-05T03:28:33.233Z,0.70
2022-10-05T03:31:44.680Z,0.60
2022-10-05T03:34:47.321Z,0.85
2022-10-05T03:38:13.798Z,0.98
2022-10-05T03:41:17.312Z,0.70
2022-10-05T03:44:48.718Z,0.60
2022-10-05T03:48:10.246Z,0.60
2022-10-05T03:51:30.194Z,0.75
2022-10-05T03:55:11.685Z,0.80
2022-10-05T03:58:22.260Z,0.80
2022-10-05T04:01:25.416Z,0.80
2022-10-05T04:04:38.974Z,0.70
2022-10-05T04:07:53.831Z,0.80
2022-10-05T04:10:50.926Z,0.95
2022-10-05T04:14:05.016Z,1.17
2022-10-05T04:17:12.042Z,0.80
2022-10-05T04:20:24.888Z,0.80
2022-10-05T04:23:31.909Z,0.80
2022-10-05T04:26:38.456Z,0.93
2022-10-05T04:29:48.605Z,0.60
2022-10-05T04:32:47.626Z,0.75
2022-10-05T04:36:06.583Z,0.65
2022-10-05T04:39:28.470Z,0.63
2022-10-05T04:43:01.182Z,0.80
2022-10-05T04:46:31.228Z,0.63
2022-10-05T04:49:56.189Z,0.65
2022-10-05T04:53:27.327Z,0.60
2022-10-05T04:56:23.076Z,0.63
2022-10-05T04:59:47.422Z,0.73
2022-10-05T05:02:53.961Z,0.60
2022-10-05T05:06:16.875Z,0.55
2022-10-05T05:09:24.201Z,0.80
2022-10-05T05:12:26.465Z,0.70
2022-10-05T05:15:42.516Z,0.60
2022-10-05T05:19:14.710Z,0.95
2022-10-05T05:22:18.377Z,0.52
2022-10-05T05:25:27.473Z,0.73
2022-10-05T05:28:34.022Z,0.60
2022-10-05T05:31:57.330Z,0.63
2022-10-05T05:35:29.494Z,0.63
2022-10-05T05:38:23.846Z,0.50
2022-10-05T05:41:56.293Z,0.80
2022-10-05T05:44:55.373Z,0.60
2022-10-05T05:47:59.588Z,0.70
2022-10-05T05:51:20.849Z,0.73
2022-10-05T05:54:18.410Z,0.57
2022-10-05T05:57:34.039Z,0.60
2022-10-05T06:00:54.560Z,0.60
2022-10-05T06:04:02.045Z,0.60
2022-10-05T06:06:59.811Z,0.63
2022-10-05T06:10:07.473Z,0.50
2022-10-05T06:19:16.285Z,0.60
2022-10-05T06:22:28.496Z,0.60
2022-10-05T06:25:44.071Z,0.60
2022-10-05T06:28:39.124Z,0.50
2022-10-05T06:31:56.483Z,0.50
2022-10-05T06:35:03.391Z,0.50
2022-10-05T06:38:03.570Z,0.40
2022-10-05T06:41:12.898Z,0.60
2022-10-05T06:44:11.874Z,0.60
2022-10-05T06:47:19.784Z,0.40
2022-10-05T06:50:31.933Z,0.45
2022-10-05T06:53:41.417Z,0.40
2022-10-05T06:56:42.593Z,0.55
2022-10-05T06:59:57.818Z,0.60
2022-10-05T07:03:10.669Z,0.30
2022-10-05T07:06:12.730Z,0.50
2022-10-05T07:09:37.787Z,0.38
2022-10-05T07:12:42.648Z,0.52
2022-10-05T07:16:01.507Z,0.73
2022-10-05T07:19:28.733Z,0.50
2022-10-05T07:22:50.643Z,0.50
2022-10-05T07:26:05.369Z,0.40
2022-10-05T07:29:17.535Z,0.50
2022-10-05T07:32:30.353Z,1.20
2022-10-05T07:36:09.704Z,0.80
2022-10-05T07:39:18.566Z,0.50
2022-10-05T07:42:48.789Z,0.60
2022-10-05T07:45:49.040Z,0.60
2022-10-05T07:49:11.409Z,0.50
2022-10-05T07:52:22.319Z,0.50
2022-10-05T07:55:38.526Z,0.50
2022-10-05T07:59:00.740Z,0.68
2022-10-05T08:02:28.488Z,0.90
2022-10-05T08:05:32.753Z,0.80
2022-10-05T08:08:55.125Z,0.50
2022-10-05T08:11:55.430Z,0.57
2022-10-05T08:15:00.570Z,0.55
2022-10-05T08:18:01.760Z,0.60
2022-10-05T08:20:59.616Z,0.52
2022-10-05T08:24:37.572Z,0.70
2022-10-05T08:27:48.139Z,0.57
2022-10-05T08:31:16.504Z,0.75
2022-10-05T08:34:35.282Z,0.60
2022-10-05T08:37:34.720Z,0.50
2022-10-05T08:40:35.226Z,0.55
2022-10-05T08:43:52.491Z,0.60
2022-10-05T08:47:06.755Z,0.80
2022-10-05T08:50:27.082Z,0.47
2022-10-05T08:53:48.649Z,0.73
2022-10-05T08:57:06.294Z,0.77
2022-10-05T09:00:18.202Z,0.73
2022-10-05T09:03:38.279Z,0.65
2022-10-05T09:06:52.434Z,0.82
2022-10-05T09:10:20.802Z,0.77
2022-10-05T09:13:39.005Z,0.60
2022-10-05T09:19:44.732Z,0.75
2022-10-05T09:22:54.420Z,0.70
2022-10-05T09:26:07.093Z,0.80
2022-10-05T09:29:13.390Z,0.68
2022-10-05T09:32:41.218Z,1.23
2022-10-05T09:36:01.916Z,0.80
2022-10-05T09:38:56.375Z,1.08
2022-10-05T09:42:22.867Z,0.90
2022-10-05T09:45:26.386Z,0.90
2022-10-05T09:48:23.077Z,0.90
2022-10-05T09:51:44.140Z,0.80
2022-10-05T09:54:45.024Z,0.90
2022-10-05T09:57:53.148Z,0.93
2022-10-05T10:01:33.763Z,1.08
2022-10-05T10:04:49.148Z,0.88
2022-10-05T10:07:46.249Z,1.23
2022-10-05T10:10:53.823Z,1.35
2022-10-05T10:14:15.800Z,1.42
2022-10-05T10:17:38.590Z,1.27
2022-10-05T10:20:53.073Z,1.10
2022-10-05T10:24:01.474Z,0.95
2022-10-05T10:27:00.159Z,0.90
2022-10-05T10:30:12.949Z,1.00
2022-10-05T10:33:34.946Z,1.10
2022-10-05T10:37:07.677Z,0.95
2022-10-05T10:40:17.116Z,1.38
2022-10-05T10:43:36.146Z,1.27
2022-10-05T10:46:43.037Z,1.17
2022-10-05T10:49:50.629Z,1.57
2022-10-05T10:53:17.277Z,1.20
2022-10-05T10:56:43.995Z,1.40
2022-10-05T10:59:49.965Z,1.23
2022-10-05T11:02:56.756Z,1.40
2022-10-05T11:06:05.554Z,1.10
2022-10-05T11:09:24.298Z,1.00
2022-10-05T11:12:53.889Z,1.30
2022-10-05T11:16:26.202Z,1.35
2022-10-05T11:20:03.173Z,1.40
2022-10-05T11:23:45.748Z,1.58
2022-10-05T11:26:46.548Z,1.25
2022-10-05T11:30:18.050Z,1.27
2022-10-05T11:33:21.358Z,1.23
2022-10-05T11:36:46.305Z,1.52
2022-10-05T11:39:40.677Z,1.30
2022-10-05T11:43:25.632Z,1.58
2022-10-05T11:46:38.366Z,1.75
2022-10-05T11:49:55.888Z,1.42
2022-10-05T11:53:02.090Z,1.55
2022-10-05T11:56:23.100Z,1.55
2022-10-05T11:59:50.523Z,1.60
2022-10-05T12:03:06.070Z,1.85
2022-10-05T12:06:28.074Z,1.80
2022-10-05T12:09:37.619Z,1.65
2022-10-05T12:12:41.060Z,1.58
2022-10-05T12:15:38.441Z,1.90
2022-10-05T12:18:32.850Z,1.77
2022-10-05T12:21:54.043Z,2.00
2022-10-05T12:25:08.262Z,1.58
2022-10-05T12:28:11.751Z,1.40
2022-10-05T12:31:30.926Z,1.60
2022-10-05T12:35:02.140Z,1.55
2022-10-05T12:38:31.814Z,1.48
2022-10-05T12:41:39.823Z,1.50
2022-10-05T12:44:52.680Z,1.73
2022-10-05T12:47:54.121Z,1.60
2022-10-05T12:50:57.006Z,1.60
2022-10-05T12:54:10.896Z,1.42
2022-10-05T12:57:08.344Z,1.70
2022-10-05T13:00:08.732Z,1.40
2022-10-05T13:03:38.715Z,1.65
2022-10-05T13:07:13.389Z,1.40
2022-10-05T13:10:35.107Z,1.67
2022-10-05T13:14:00.364Z,1.60
2022-10-05T13:17:22.470Z,1.60
2022-10-05T13:20:29.514Z,1.55
2022-10-05T13:23:40.672Z,1.45
2022-10-05T13:26:50.118Z,1.60
2022-10-05T13:30:06.943Z,1.48
2022-10-05T13:33:13.345Z,1.98
2022-10-05T13:36:19.929Z,1.65
2022-10-05T13:39:55.934Z,1.60
2022-10-05T13:43:12.411Z,1.80
2022-10-05T13:46:23.492Z,1.80
2022-10-05T13:49:44.817Z,1.85
2022-10-05T13:53:06.386Z,1.63
2022-10-05T13:56:24.075Z,1.50
2022-10-05T13:59:39.399Z,1.70
2022-10-05T14:02:40.863Z,1.55
2022-10-05T14:05:37.844Z,1.70
2022-10-05T14:11:41.522Z,1.40
2022-10-05T14:14:47.680Z,1.63
2022-10-05T14:17:45.251Z,1.35
2022-10-05T14:20:39.670Z,1.35
2022-10-05T14:23:34.378Z,1.50
2022-10-05T14:26:28.737Z,1.50
2022-10-05T14:29:37.789Z,1.55
2022-10-05T14:32:50.381Z,1.52
2022-10-05T14:35:52.493Z,1.50
2022-10-05T14:38:54.361Z,1.48
2022-10-05T14:41:52.220Z,1.73
2022-10-05T14:44:47.893Z,1.50
2022-10-05T14:48:12.702Z,1.40
2022-10-05T14:51:33.108Z,1.40
2022-10-05T14:54:56.228Z,1.58
2022-10-05T14:58:00.867Z,1.90
2022-10-05T15:01:25.814Z,1.90
2022-10-05T15:04:22.995Z,1.73
2022-10-05T15:07:20.273Z,1.35
2022-10-05T15:13:39.108Z,1.25
2022-10-05T15:16:39.585Z,1.60
2022-10-05T15:20:07.522Z,1.88
2022-10-05T15:23:27.065Z,1.60
2022-10-05T15:26:54.088Z,1.67
2022-10-05T15:29:56.094Z,1.50
2022-10-05T15:32:53.606Z,2.00
2022-10-05T15:35:57.494Z,1.40
2022-10-05T15:39:07.887Z,1.30
2022-10-05T15:42:06.653Z,1.20
2022-10-05T15:45:24.762Z,1.35
2022-10-05T15:48:58.256Z,1.55
2022-10-05T15:52:01.045Z,1.40
2022-10-05T15:55:01.590Z,1.35
2022-10-05T15:57:59.005Z,1.20
2022-10-05T16:01:18.273Z,1.40
2022-10-05T16:04:23.836Z,1.38
2022-10-05T16:07:47.127Z,1.48
2022-10-05T16:10:45.760Z,1.38
2022-10-05T16:14:10.163Z,1.95
2022-10-05T16:17:04.666Z,1.45
2022-10-05T16:20:23.217Z,1.40
2022-10-05T16:23:36.399Z,1.25
2022-10-05T16:26:59.076Z,1.20
2022-10-05T16:30:24.763Z,1.45
2022-10-05T16:33:47.023Z,1.50
2022-10-05T16:36:45.893Z,1.40
2022-10-05T16:39:55.384Z,1.17
2022-10-05T16:43:02.957Z,1.42
2022-10-05T16:46:13.360Z,1.48
2022-10-05T16:49:34.037Z,1.42
2022-10-05T16:52:29.225Z,1.60
2022-10-05T16:55:46.362Z,1.92
2022-10-05T16:59:08.455Z,1.33
2022-10-05T17:02:31.507Z,1.65
2022-10-05T17:06:03.014Z,1.35
2022-10-05T17:09:13.587Z,1.52
2022-10-05T17:12:13.761Z,1.40
2022-10-05T17:15:30.880Z,1.27
2022-10-05T17:18:53.072Z,1.42
2022-10-05T17:22:04.374Z,1.58
2022-10-05T17:25:09.833Z,1.30
2022-10-05T17:28:41.373Z,1.40
2022-10-05T17:32:12.270Z,1.48
2022-10-05T17:35:19.906Z,1.60
2022-10-05T17:38:43.086Z,1.60
2022-10-05T17:41:39.994Z,1.50
2022-10-05T17:44:34.522Z,1.42
2022-10-05T17:48:04.746Z,1.27
2022-10-05T17:51:17.321Z,1.63
2022-10-05T17:55:06.642Z,1.50
2022-10-05T17:58:23.046Z,1.33
2022-10-05T18:01:31.434Z,1.60
2022-10-05T18:04:31.727Z,1.10
2022-10-05T18:07:27.934Z,1.30
2022-10-05T18:10:30.793Z,1.52
2022-10-05T18:13:47.527Z,1.40
2022-10-05T18:17:13.283Z,1.40
2022-10-05T18:20:31.549Z,1.33
2022-10-05T18:23:26.892Z,1.40
2022-10-05T18:26:29.317Z,1.40
2022-10-05T18:29:50.945Z,1.05
2022-10-05T18:33:31.731Z,1.55
2022-10-05T18:37:08.448Z,1.30
2022-10-05T18:40:31.386Z,1.40
2022-10-05T18:43:38.746Z,1.20
2022-10-05T18:46:42.517Z,1.25
2022-10-05T18:50:22.757Z,1.60
2022-10-05T18:53:32.496Z,1.40
2022-10-05T18:56:45.762Z,1.50
2022-10-05T19:00:17.939Z,1.50
2022-10-05T19:03:18.728Z,1.30
2022-10-05T19:06:31.619Z,1.65
2022-10-05T19:09:50.446Z,1.17
2022-10-05T19:13:21.535Z,1.27
2022-10-05T19:16:40.089Z,1.58
2022-10-05T19:19:45.593Z,1.35
2022-10-05T19:23:16.779Z,1.60
2022-10-05T19:26:15.804Z,1.55
2022-10-05T19:29:40.093Z,1.50
2022-10-05T19:32:52.611Z,1.50
2022-10-05T19:35:58.714Z,2.05
2022-10-05T19:39:04.830Z,1.60
2022-10-05T19:42:12.134Z,1.90
2022-10-05T19:45:12.561Z,1.75
2022-10-05T19:48:18.083Z,1.33
2022-10-05T19:51:34.508Z,1.80
2022-10-05T19:54:32.925Z,1.48
2022-10-05T19:57:27.589Z,1.80
2022-10-05T20:00:32.479Z,1.38
2022-10-05T20:03:30.520Z,1.48
2022-10-05T20:06:25.405Z,1.40
2022-10-05T20:09:25.550Z,1.10
2022-10-05T20:12:22.623Z,1.45
2022-10-05T20:15:40.387Z,1.30
2022-10-05T20:19:05.126Z,1.15
2022-10-05T20:22:01.730Z,1.50
2022-10-05T20:24:58.948Z,1.30
2022-10-05T20:30:48.864Z,1.00
2022-10-05T20:33:43.383Z,1.17
2022-10-05T20:36:38.355Z,1.40
2022-10-05T20:39:32.890Z,1.60
2022-10-05T20:42:27.968Z,1.42
2022-10-05T20:45:22.709Z,1.60
2022-10-05T20:48:17.845Z,1.27
2022-10-05T20:51:19.197Z,1.40
2022-10-05T20:54:13.621Z,1.20
2022-10-05T20:57:08.825Z,1.58
2022-10-05T21:00:03.339Z,1.58
2022-10-05T21:02:58.625Z,1.25
2022-10-05T21:05:53.183Z,1.50
2022-10-05T21:08:48.685Z,1.45
2022-10-05T21:11:48.369Z,1.27
2022-10-05T21:14:42.898Z,1.63
2022-10-05T21:17:37.632Z,1.20
2022-10-05T21:20:32.051Z,1.05
2022-10-05T21:23:26.427Z,1.40
2022-10-05T21:26:20.917Z,1.52
2022-10-05T21:29:15.389Z,1.45
2022-10-05T21:32:12.636Z,1.70
2022-10-05T21:35:07.321Z,1.70
2022-10-05T21:38:01.784Z,1.42
2022-10-05T21:40:56.305Z,1.60
2022-10-05T21:43:51.251Z,1.15
2022-10-05T21:46:45.715Z,1.02
2022-10-05T21:49:41.177Z,1.52
2022-10-05T21:52:37.161Z,1.25
2022-10-05T21:55:31.918Z,1.00
2022-10-05T21:58:28.321Z,1.13
2022-10-05T22:01:23.218Z,0.90
2022-10-05T22:04:17.700Z,1.15
2022-10-05T22:07:22.005Z,0.85
2022-10-05T22:10:16.777Z,0.85
2022-10-05T22:13:11.930Z,0.68
2022-10-05T22:16:06.629Z,0.50
2022-10-05T22:19:04.481Z,0.43
2022-10-05T22:21:58.887Z,0.30
2022-10-05T22:24:54.795Z,0.50
2022-10-05T22:27:50.031Z,0.57
2022-10-05T22:30:46.766Z,0.22
2022-10-05T22:33:42.211Z,0.32
2022-10-05T22:36:37.523Z,0.50
2022-10-05T22:39:32.329Z,0.40
2022-10-05T22:42:26.786Z,0.30
2022-10-05T22:45:21.229Z,0.43
2022-10-05T22:48:17.005Z,0.60
2022-10-05T22:51:11.665Z,0.50
2022-10-05T22:54:06.561Z,0.52
2022-10-05T22:57:01.448Z,0.50
2022-10-05T22:59:57.004Z,0.40
2022-10-05T23:02:51.398Z,0.30
2022-10-05T23:05:45.877Z,0.55
2022-10-05T23:08:41.554Z,0.30
2022-10-05T23:11:36.186Z,0.40
2022-10-05T23:14:32.030Z,0.40
2022-10-05T23:17:28.279Z,0.30
2022-10-05T23:20:22.732Z,0.30
2022-10-05T23:23:17.224Z,0.50
2022-10-05T23:26:14.274Z,0.20
2022-10-05T23:32:02.598Z,0.30
2022-10-05T23:34:57.080Z,0.50
2022-10-05T23:37:51.589Z,0.47
2022-10-05T23:40:48.862Z,0.38
2022-10-05T23:43:43.553Z,0.43
2022-10-05T23:46:37.942Z,0.60
2022-10-05T23:49:32.344Z,0.45
2022-10-05T23:52:26.765Z,0.75
2022-10-05T23:55:21.258Z,0.52
2022-10-05T23:58:15.681Z,0.60
